Time;durP1;ratioP1;P1;durP2;ratioP2;P2;SDS_P1;SDS_P2;PMS_P1;PMS_P2;Temp;Humidity;BMP_temperature;BMP_pressure;BME280_temperature;BME280_humidity;BME280_pressure;Samples;Min_cycle;Max_cycle;Signal;HPM_P1;HPM_P2
2021/01/29 00:00:29;;;;;;;19.40;12.90;;;4.40;89.00;;;;;;5126091;27;20200;-57
2021/01/29 00:02:57;;;;;;;19.27;12.40;;;4.50;89.20;;;;;;5114724;27;20437;-56
2021/01/29 00:05:27;;;;;;;23.97;13.93;;;4.40;85.10;;;;;;5130627;27;20423;-55
2021/01/29 00:07:53;;;;;;;20.07;12.70;;;4.30;88.90;;;;;;5121729;27;20489;-56
2021/01/29 00:10:18;;;;;;;19.50;13.10;;;4.30;91.60;;;;;;5116189;27;20439;-56
2021/01/29 00:12:44;;;;;;;20.57;14.10;;;4.40;92.70;;;;;;5122857;27;20192;-54
2021/01/29 00:15:13;;;;;;;17.20;12.17;;;4.40;93.40;;;;;;5131034;27;20325;-56
2021/01/29 00:17:40;;;;;;;19.57;13.20;;;4.40;93.40;;;;;;5135357;27;20438;-55
2021/01/29 00:20:09;;;;;;;19.17;12.30;;;4.50;91.80;;;;;;5132351;27;20792;-57
2021/01/29 00:22:34;;;;;;;20.63;13.27;;;4.50;85.40;;;;;;5117458;27;20494;-56
2021/01/29 00:25:00;;;;;;;18.60;12.23;;;4.60;83.10;;;;;;5128881;27;20415;-55
2021/01/29 00:27:26;;;;;;;16.87;12.20;;;4.60;77.90;;;;;;5127679;27;20531;-54
2021/01/29 00:29:51;;;;;;;17.53;12.03;;;4.60;60.70;;;;;;5132885;27;20705;-55
2021/01/29 00:32:17;;;;;;;15.70;11.53;;;4.40;57.80;;;;;;5131500;27;20222;-54
2021/01/29 00:34:44;;;;;;;17.40;10.50;;;4.30;70.60;;;;;;5128237;27;20199;-55
2021/01/29 00:37:09;;;;;;;15.60;10.67;;;4.20;66.90;;;;;;5122832;27;20185;-55
2021/01/29 00:39:35;;;;;;;14.83;10.50;;;4.10;64.50;;;;;;5122563;27;20425;-56
2021/01/29 00:42:00;;;;;;;14.87;10.47;;;4.20;59.80;;;;;;5121902;27;20284;-54
2021/01/29 00:44:26;;;;;;;17.33;10.60;;;4.20;57.10;;;;;;5124792;27;20235;-55
2021/01/29 00:46:51;;;;;;;15.23;9.60;;;4.20;57.70;;;;;;5121145;27;20192;-57
2021/01/29 00:49:17;;;;;;;18.43;11.80;;;4.20;55.60;;;;;;5129495;27;20270;-54
2021/01/29 00:51:42;;;;;;;14.63;10.73;;;4.30;54.90;;;;;;5134756;27;20192;-54
2021/01/29 00:54:08;;;;;;;14.17;9.70;;;4.30;52.10;;;;;;5116236;27;20631;-56
2021/01/29 00:56:34;;;;;;;12.50;9.10;;;4.50;48.40;;;;;;5129493;27;20182;-56
2021/01/29 00:58:59;;;;;;;17.23;11.63;;;4.50;43.30;;;;;;5115046;27;20190;-55
2021/01/29 01:01:25;;;;;;;15.37;10.37;;;4.50;41.20;;;;;;5113741;28;20232;-55
2021/01/29 01:03:51;;;;;;;16.23;11.00;;;4.60;36.60;;;;;;5123657;27;20734;-55
2021/01/29 01:06:16;;;;;;;13.70;9.93;;;4.60;26.30;;;;;;5117159;27;20209;-55
2021/01/29 01:08:42;;;;;;;15.60;10.03;;;4.60;27.50;;;;;;5130367;27;20511;-55
2021/01/29 01:11:07;;;;;;;14.40;10.00;;;4.60;26.30;;;;;;5113760;28;20186;-55
2021/01/29 01:13:33;;;;;;;13.47;9.13;;;4.70;23.30;;;;;;5117283;27;20268;-55
2021/01/29 01:15:58;;;;;;;14.43;10.63;;;4.70;21.80;;;;;;5126856;27;20201;-56
2021/01/29 01:18:24;;;;;;;16.03;10.33;;;4.80;19.60;;;;;;5131357;27;20189;-57
2021/01/29 01:20:49;;;;;;;16.80;11.13;;;4.40;16.50;;;;;;5133953;27;20200;-56
2021/01/29 01:23:15;;;;;;;16.10;10.40;;;4.80;20.40;;;;;;5121061;27;20200;-57
2021/01/29 01:25:40;;;;;;;16.57;10.67;;;4.80;18.90;;;;;;5125383;27;20226;-58
2021/01/29 01:28:06;;;;;;;21.53;10.97;;;4.90;18.50;;;;;;5125532;27;20181;-55
2021/01/29 01:30:38;;;;;;;15.40;11.20;;;4.90;15.40;;;;;;5132077;27;20189;-56
2021/01/29 01:33:04;;;;;;;23.63;13.97;;;4.70;17.80;;;;;;5133642;27;20712;-55
2021/01/29 01:35:29;;;;;;;15.00;10.47;;;4.70;18.40;;;;;;5121009;27;20514;-55
2021/01/29 01:37:55;;;;;;;16.70;11.67;;;4.70;20.30;;;;;;5113195;28;20224;-54
2021/01/29 01:40:26;;;;;;;18.13;12.20;;;4.70;20.30;;;;;;5115919;27;20203;-55
2021/01/29 01:42:51;;;;;;;16.10;11.27;;;4.60;25.50;;;;;;5115168;27;20512;-55
2021/01/29 01:45:26;;;;;;;17.87;12.27;;;4.60;24.70;;;;;;5121576;27;20519;-56
2021/01/29 01:47:55;;;;;;;19.03;12.30;;;4.60;25.80;;;;;;5120007;27;20181;-54
2021/01/29 01:50:30;;;;;;;21.67;12.83;;;4.50;29.00;;;;;;5120480;27;20571;-55
2021/01/29 01:52:57;;;;;;;17.57;11.57;;;4.50;38.00;;;;;;5118988;27;20855;-56
2021/01/29 01:55:29;;;;;;;17.93;12.20;;;4.60;36.40;;;;;;5114512;27;20763;-55
2021/01/29 01:57:57;;;;;;;18.63;12.50;;;4.60;32.70;;;;;;5112893;28;20435;-54
2021/01/29 02:00:29;;;;;;;16.93;11.90;;;4.50;36.30;;;;;;5128604;27;20456;-55
2021/01/29 02:03:00;;;;;;;14.83;11.10;;;4.50;40.40;;;;;;5127226;27;20439;-55
2021/01/29 02:05:38;;;;;;;16.57;10.70;;;4.50;43.00;;;;;;5114737;27;20419;-55
2021/01/29 02:08:13;;;;;;;15.63;11.40;;;4.50;41.00;;;;;;5130583;27;20418;-55
2021/01/29 02:10:39;;;;;;;16.20;12.23;;;4.50;38.50;;;;;;5124154;27;20438;-55
2021/01/29 02:13:06;;;;;;;15.77;11.70;;;4.60;32.00;;;;;;5112506;28;20943;-54
2021/01/29 02:15:37;;;;;;;19.67;12.47;;;4.60;35.30;;;;;;5118087;27;20437;-55
2021/01/29 02:18:24;;;;;;;16.47;11.10;;;4.50;32.60;;;;;;5112721;28;20484;-56
2021/01/29 02:21:27;;;;;;;16.47;11.70;;;4.50;32.20;;;;;;5112695;28;20546;-53
2021/01/29 02:24:17;;;;;;;19.70;11.77;;;4.40;27.70;;;;;;5126668;28;20424;-54
2021/01/29 02:27:22;;;;;;;17.07;11.10;;;4.20;36.20;;;;;;5129404;28;21166;-54
2021/01/29 02:30:01;;;;;;;14.83;10.80;;;4.30;39.20;;;;;;5095359;28;20422;-55
2021/01/29 02:32:51;;;;;;;15.43;10.23;;;4.40;34.30;;;;;;5129950;27;20494;-55
2021/01/29 02:35:44;;;;;;;15.77;10.13;;;4.40;35.60;;;;;;5122269;28;20500;-55
2021/01/29 02:38:36;;;;;;;17.20;10.90;;;4.50;31.70;;;;;;5114895;28;20424;-55
2021/01/29 02:41:22;;;;;;;15.97;10.40;;;4.50;26.80;;;;;;5123415;28;20943;-55
2021/01/29 02:43:56;;;;;;;17.50;11.67;;;4.50;25.20;;;;;;5122441;28;20787;-54
2021/01/29 02:46:43;;;;;;;18.63;11.30;;;4.60;23.30;;;;;;5120280;27;20453;-54
2021/01/29 02:49:45;;;;;;;19.97;13.70;;;4.70;22.20;;;;;;5124655;27;20428;-54
2021/01/29 02:52:35;;;;;;;22.87;13.60;;;4.70;22.20;;;;;;5108168;27;20422;-55
2021/01/29 02:55:19;;;;;;;17.27;11.60;;;4.60;22.80;;;;;;5135334;27;20427;-55
2021/01/29 02:57:52;;;;;;;17.33;11.67;;;4.60;22.70;;;;;;5122500;27;20517;-55
2021/01/29 03:00:42;;;;;;;15.63;10.70;;;4.50;23.30;;;;;;5110172;27;20428;-55
2021/01/29 03:03:33;;;;;;;17.53;11.13;;;4.40;21.00;;;;;;5130183;27;20478;-53
2021/01/29 03:06:05;;;;;;;10.00;7.80;;;4.20;23.10;;;;;;5124587;27;20426;-53
2021/01/29 03:08:35;;;;;;;12.80;9.00;;;4.20;20.10;;;;;;5127105;27;20472;-56
2021/01/29 03:11:30;;;;;;;13.73;9.00;;;4.00;21.50;;;;;;5130311;27;20439;-54
2021/01/29 03:14:10;;;;;;;10.80;8.67;;;4.00;24.00;;;;;;5118655;27;20432;-54
2021/01/29 03:16:46;;;;;;;13.80;8.43;;;4.00;23.70;;;;;;5115895;27;20968;-55
2021/01/29 03:19:34;;;;;;;10.93;8.67;;;4.00;27.30;;;;;;5126286;27;20440;-55
2021/01/29 03:22:05;;;;;;;17.37;8.47;;;4.00;27.80;;;;;;5123152;27;20474;-55
2021/01/29 03:24:42;;;;;;;15.37;9.03;;;4.00;26.60;;;;;;5130205;27;20435;-55
2021/01/29 03:27:25;;;;;;;12.83;9.40;;;4.10;18.00;;;;;;5115802;28;20442;-56
2021/01/29 03:29:59;;;;;;;12.10;8.50;;;4.10;18.00;;;;;;5118378;27;20432;-54
2021/01/29 03:32:26;;;;;;;14.03;8.60;;;4.00;20.00;;;;;;5118754;27;21014;-55
2021/01/29 03:35:13;;;;;;;14.20;9.17;;;4.00;22.30;;;;;;5127646;27;20442;-55
2021/01/29 03:38:00;;;;;;;11.67;9.00;;;4.10;25.30;;;;;;5122088;27;20924;-55
2021/01/29 03:40:26;;;;;;;13.00;9.33;;;4.20;22.10;;;;;;5118364;27;20501;-55
2021/01/29 03:43:22;;;;;;;11.97;8.50;;;4.30;21.30;;;;;;5131469;27;20428;-55
2021/01/29 03:46:01;;;;;;;12.30;8.90;;;4.40;17.70;;;;;;5126748;27;20424;-55
2021/01/29 03:48:36;;;;;;;11.87;9.07;;;4.40;14.70;;;;;;5115232;28;20424;-56
2021/01/29 03:51:38;;;;;;;13.83;8.90;;;4.30;17.10;;;;;;5117360;27;20439;-54
2021/01/29 03:54:30;;;;;;;12.27;8.77;;;4.40;18.10;;;;;;5129948;27;20786;-55
2021/01/29 03:57:19;;;;;;;10.80;7.80;;;4.40;16.80;;;;;;5135895;27;20425;-55
2021/01/29 04:00:06;;;;;;;9.73;8.17;;;4.50;13.80;;;;;;5119277;27;20481;-55
2021/01/29 04:02:41;;;;;;;12.33;8.53;;;4.50;12.10;;;;;;5106006;27;20892;-56
2021/01/29 04:05:31;;;;;;;12.03;8.63;;;4.40;10.50;;;;;;5115042;28;20489;-54
2021/01/29 04:08:06;;;;;;;14.53;9.30;;;4.40;10.30;;;;;;5096052;27;20444;-55
2021/01/29 04:10:34;;;;;;;9.87;8.03;;;4.30;10.00;;;;;;5135486;27;20729;-55
2021/01/29 04:13:12;;;;;;;9.50;7.70;;;4.30;7.00;;;;;;5116846;27;20443;-54
2021/01/29 04:15:54;;;;;;;9.73;7.60;;;4.30;5.80;;;;;;5135234;27;20848;-56
2021/01/29 04:18:31;;;;;;;11.17;8.20;;;4.20;3.60;;;;;;5124872;27;20446;-55
2021/01/29 04:21:05;;;;;;;11.23;7.73;;;4.20;4.20;;;;;;5120240;27;20458;-54
2021/01/29 04:23:36;;;;;;;14.33;8.60;;;4.10;4.20;;;;;;5129525;27;20488;-56
2021/01/29 04:26:13;;;;;;;11.17;8.80;;;4.10;1.70;;;;;;5129248;27;20439;-56
2021/01/29 04:28:45;;;;;;;11.43;7.77;;;4.10;4.60;;;;;;5123612;27;20430;-56
2021/01/29 04:31:15;;;;;;;9.83;7.93;;;4.00;9.40;;;;;;5135035;27;20550;-54
2021/01/29 04:33:46;;;;;;;10.50;7.97;;;4.10;9.00;;;;;;5128845;27;20548;-56
2021/01/29 04:36:15;;;;;;;14.37;8.97;;;4.00;9.70;;;;;;5124301;27;20432;-55
2021/01/29 04:38:45;;;;;;;10.87;9.27;;;4.10;7.70;;;;;;5117036;27;20431;-54
2021/01/29 04:41:33;;;;;;;13.77;8.50;;;4.00;8.90;;;;;;5134790;27;20504;-54
2021/01/29 04:44:11;;;;;;;15.00;8.20;;;4.10;10.20;;;;;;5110064;27;20461;-55
2021/01/29 04:47:14;;;;;;;12.87;9.30;;;4.10;10.40;;;;;;5122636;27;20431;-54
2021/01/29 04:50:05;;;;;;;12.67;9.40;;;4.10;9.00;;;;;;5134741;27;20441;-54
2021/01/29 04:52:55;;;;;;;12.40;9.07;;;4.10;7.30;;;;;;5120976;27;20460;-56
2021/01/29 04:55:33;;;;;;;9.20;7.27;;;4.20;7.90;;;;;;5114987;27;20427;-53
2021/01/29 04:58:23;;;;;;;12.97;8.80;;;4.20;9.00;;;;;;5124345;27;20430;-55
2021/01/29 05:01:21;;;;;;;12.90;9.00;;;4.20;6.80;;;;;;5117052;27;20844;-55
2021/01/29 05:04:11;;;;;;;11.40;8.67;;;4.20;7.80;;;;;;5118315;27;20499;-54
2021/01/29 05:07:04;;;;;;;13.53;9.47;;;4.20;7.40;;;;;;5105413;27;20438;-56
2021/01/29 05:09:39;;;;;;;12.97;9.70;;;4.20;6.30;;;;;;5134012;27;20843;-55
2021/01/29 05:12:28;;;;;;;12.13;8.63;;;4.10;7.30;;;;;;5127510;27;20433;-54
2021/01/29 05:15:16;;;;;;;11.93;8.90;;;4.10;3.30;;;;;;5124757;27;20442;-55
2021/01/29 05:18:03;;;;;;;11.60;8.77;;;4.00;1.00;;;;;;5125983;27;20466;-54
2021/01/29 05:21:24;;;;;;;13.37;8.73;;;3.80;3.10;;;;;;5126792;27;20462;-55
2021/01/29 05:24:08;;;;;;;13.23;9.07;;;3.80;8.30;;;;;;5086614;27;20455;-55
2021/01/29 05:26:58;;;;;;;13.47;9.43;;;3.70;11.20;;;;;;5132686;27;21075;-55
2021/01/29 05:29:30;;;;;;;15.83;9.47;;;3.80;10.20;;;;;;5129643;27;20457;-56
2021/01/29 05:32:27;;;;;;;13.17;10.20;;;3.80;8.90;;;;;;5130910;27;20465;-54
2021/01/29 05:35:31;;;;;;;14.77;10.20;;;3.80;10.60;;;;;;5102455;28;20504;-54
2021/01/29 05:38:15;;;;;;;16.17;10.60;;;3.90;6.90;;;;;;5113280;28;20771;-54
2021/01/29 05:40:50;;;;;;;14.33;10.63;;;3.90;10.10;;;;;;5118822;27;20968;-53
2021/01/29 05:43:37;;;;;;;13.40;9.10;;;3.90;4.10;;;;;;5126186;27;20918;-55
2021/01/29 05:46:27;;;;;;;12.30;9.97;;;3.90;4.40;;;;;;5101234;28;20920;-56
2021/01/29 05:49:12;;;;;;;15.90;10.43;;;4.00;1.00;;;;;;5112178;28;20441;-53
2021/01/29 05:51:49;;;;;;;14.90;9.80;;;4.00;1.00;;;;;;5115974;27;20517;-54
2021/01/29 05:54:53;;;;;;;12.70;9.70;;;4.00;1.00;;;;;;5118158;27;20462;-54
2021/01/29 05:57:50;;;;;;;14.50;10.00;;;4.00;1.00;;;;;;5103721;27;20441;-55
2021/01/29 06:00:42;;;;;;;14.90;10.40;;;4.10;1.00;;;;;;5110027;27;20430;-54
2021/01/29 06:03:28;;;;;;;14.43;10.50;;;4.00;1.00;;;;;;5123427;27;20917;-55
2021/01/29 06:06:29;;;;;;;14.97;10.10;;;4.10;1.00;;;;;;5127469;27;20424;-55
2021/01/29 06:09:32;;;;;;;15.63;10.87;;;4.10;1.00;;;;;;5079447;27;20467;-56
2021/01/29 06:12:16;;;;;;;15.07;10.47;;;4.10;1.00;;;;;;5125088;27;20466;-55
2021/01/29 06:15:03;;;;;;;15.60;10.53;;;4.10;1.00;;;;;;5091168;28;20517;-54
2021/01/29 06:17:57;;;;;;;15.67;11.00;;;4.10;1.00;;;;;;5107965;27;20509;-56
2021/01/29 06:20:50;;;;;;;16.23;10.27;;;4.00;1.00;;;;;;5132865;27;20419;-55
2021/01/29 06:23:37;;;;;;;16.83;11.30;;;4.00;1.00;;;;;;5128766;27;20741;-59
2021/01/29 06:26:37;;;;;;;14.37;10.20;;;4.10;1.00;;;;;;5128242;28;20431;-56
2021/01/29 06:29:21;;;;;;;13.03;9.53;;;4.10;1.00;;;;;;5112373;28;20427;-55
2021/01/29 06:31:55;;;;;;;17.17;10.07;;;4.00;1.00;;;;;;5112215;28;20461;-55
2021/01/29 06:34:39;;;;;;;12.97;9.40;;;4.10;1.00;;;;;;5112325;28;20527;-55
2021/01/29 06:37:26;;;;;;;15.30;10.90;;;4.10;1.00;;;;;;5127472;28;20761;-55
2021/01/29 06:40:07;;;;;;;15.20;10.43;;;4.10;1.00;;;;;;5117222;28;20929;-55
2021/01/29 06:43:11;;;;;;;15.27;10.30;;;4.10;1.00;;;;;;5091969;28;20461;-56
2021/01/29 06:45:52;;;;;;;13.73;9.80;;;4.10;1.00;;;;;;5125163;28;20427;-56
2021/01/29 06:48:45;;;;;;;14.40;10.03;;;4.10;1.00;;;;;;5119933;28;20914;-55
2021/01/29 06:51:16;;;;;;;15.83;10.60;;;4.00;1.00;;;;;;5123349;28;20746;-55
2021/01/29 06:53:42;;;;;;;15.00;9.00;;;4.00;1.00;;;;;;5112106;28;20938;-56
2021/01/29 06:56:29;;;;;;;16.23;10.20;;;4.00;1.00;;;;;;5112314;28;20431;-55
2021/01/29 06:59:03;;;;;;;19.53;10.63;;;4.00;1.00;;;;;;5112136;28;20578;-55
2021/01/29 07:01:49;;;;;;;16.07;10.27;;;4.00;1.00;;;;;;5110677;28;20511;-56
2021/01/29 07:04:42;;;;;;;15.67;10.33;;;4.00;1.00;;;;;;5114939;28;20514;-57
2021/01/29 07:07:29;;;;;;;13.70;10.23;;;4.00;1.00;;;;;;5131780;28;20438;-57
2021/01/29 07:10:09;;;;;;;16.93;11.00;;;4.00;1.00;;;;;;5132416;28;20411;-55
2021/01/29 07:12:36;;;;;;;16.40;10.50;;;4.10;1.00;;;;;;5120319;28;20450;-55
2021/01/29 07:15:26;;;;;;;16.53;10.20;;;4.10;1.00;;;;;;5121938;28;20431;-55
2021/01/29 07:18:15;;;;;;;15.67;9.57;;;4.20;1.00;;;;;;5132489;28;20432;-55
2021/01/29 07:21:18;;;;;;;15.20;9.73;;;4.20;1.00;;;;;;5132414;27;20540;-55
2021/01/29 07:24:26;;;;;;;14.77;9.70;;;4.10;1.00;;;;;;5125431;27;20456;-55
2021/01/29 07:27:03;;;;;;;14.13;9.47;;;4.20;1.00;;;;;;5111959;28;20480;-56
2021/01/29 07:29:58;;;;;;;12.70;9.20;;;4.20;1.00;;;;;;5112187;28;20430;-54
2021/01/29 07:32:36;;;;;;;17.27;9.90;;;4.30;1.00;;;;;;5109363;28;20476;-55
2021/01/29 07:35:39;;;;;;;13.47;9.13;;;4.20;1.00;;;;;;5113939;28;20527;-56
2021/01/29 07:38:50;;;;;;;14.53;9.07;;;4.20;1.00;;;;;;5097828;28;20829;-56
2021/01/29 07:41:42;;;;;;;13.10;9.23;;;4.30;1.00;;;;;;5128001;27;20473;-56
2021/01/29 07:44:26;;;;;;;13.80;8.80;;;4.30;1.00;;;;;;5136474;27;20429;-55
2021/01/29 07:47:13;;;;;;;12.37;9.13;;;4.30;1.00;;;;;;5129928;27;20427;-55
2021/01/29 07:50:03;;;;;;;11.17;9.10;;;4.30;1.00;;;;;;5115458;27;20508;-57
2021/01/29 07:52:45;;;;;;;12.70;9.13;;;4.30;1.00;;;;;;5115434;28;20424;-56
2021/01/29 07:55:19;;;;;;;10.30;7.87;;;4.40;1.00;;;;;;5122127;27;20458;-57
2021/01/29 07:58:11;;;;;;;13.43;8.07;;;4.40;1.00;;;;;;5122191;27;20440;-58
2021/01/29 08:00:48;;;;;;;10.93;7.57;;;4.40;1.00;;;;;;5135590;27;20470;-55
2021/01/29 08:03:48;;;;;;;12.70;8.80;;;4.50;1.00;;;;;;5131508;27;20427;-55
2021/01/29 08:06:34;;;;;;;11.20;7.87;;;4.50;1.00;;;;;;5135873;27;20418;-54
2021/01/29 08:09:25;;;;;;;11.83;7.77;;;4.60;1.00;;;;;;5108211;27;20420;-54
2021/01/29 08:12:02;;;;;;;11.77;9.10;;;4.60;1.00;;;;;;5135031;27;20963;-54
2021/01/29 08:14:39;;;;;;;10.53;8.00;;;4.70;1.00;;;;;;5134383;27;20944;-56
2021/01/29 08:17:24;;;;;;;13.20;8.10;;;4.80;1.00;;;;;;5121714;27;20522;-56
2021/01/29 08:20:17;;;;;;;11.47;8.63;;;4.80;1.00;;;;;;5123366;27;20418;-56
2021/01/29 08:23:05;;;;;;;11.63;8.13;;;4.90;1.00;;;;;;5135280;27;20456;-56
2021/01/29 08:25:54;;;;;;;17.27;8.50;;;5.00;1.00;;;;;;5135563;27;20422;-56
2021/01/29 08:28:57;;;;;;;14.93;9.17;;;4.90;1.00;;;;;;5135080;27;20427;-56
2021/01/29 08:31:46;;;;;;;12.00;9.70;;;4.90;1.00;;;;;;5135188;27;20981;-56
2021/01/29 08:34:45;;;;;;;12.53;8.40;;;4.90;1.00;;;;;;5129626;27;20438;-58
2021/01/29 08:37:29;;;;;;;12.80;9.47;;;4.80;1.00;;;;;;5125063;27;20429;-55
2021/01/29 08:40:14;;;;;;;14.00;9.07;;;4.90;1.00;;;;;;5120953;27;20489;-57
2021/01/29 08:43:17;;;;;;;13.30;9.00;;;5.00;1.00;;;;;;5124389;27;20561;-55
2021/01/29 08:46:25;;;;;;;11.07;7.53;;;4.90;1.00;;;;;;5120445;27;20431;-56
2021/01/29 08:49:06;;;;;;;10.83;7.47;;;4.90;1.00;;;;;;5123679;27;20435;-56
2021/01/29 08:51:43;;;;;;;7.60;6.60;;;4.90;1.00;;;;;;5129565;27;20525;-55
2021/01/29 08:54:23;;;;;;;11.20;8.20;;;4.90;1.00;;;;;;5118744;27;20445;-55
2021/01/29 08:57:14;;;;;;;11.60;7.60;;;4.80;1.00;;;;;;5122136;27;20442;-59
2021/01/29 08:59:41;;;;;;;12.73;8.70;;;4.70;1.00;;;;;;5119743;27;20433;-57
2021/01/29 09:02:34;;;;;;;15.87;10.20;;;4.60;1.00;;;;;;5123052;27;20462;-56
2021/01/29 09:05:02;;;;;;;10.30;7.70;;;4.70;1.00;;;;;;5131570;27;20422;-58
2021/01/29 09:07:34;;;;;;;9.23;7.80;;;4.70;1.00;;;;;;5122725;27;20415;-54
2021/01/29 09:10:23;;;;;;;14.10;8.87;;;4.70;1.00;;;;;;5120680;27;20449;-55
2021/01/29 09:12:59;;;;;;;16.17;9.47;;;4.70;1.00;;;;;;5130688;27;20882;-56
2021/01/29 09:15:50;;;;;;;12.50;9.47;;;4.70;1.00;;;;;;5123363;27;20518;-55
2021/01/29 09:18:32;;;;;;;13.47;9.70;;;4.60;1.00;;;;;;5122439;27;20918;-55
2021/01/29 09:21:16;;;;;;;13.67;9.33;;;4.50;1.00;;;;;;5121503;27;20548;-55
2021/01/29 09:24:06;;;;;;;13.50;10.07;;;4.40;1.00;;;;;;5131249;27;20396;-56
2021/01/29 09:27:02;;;;;;;11.50;9.17;;;4.50;1.00;;;;;;5124889;27;20432;-58
2021/01/29 09:29:32;;;;;;;11.37;8.93;;;4.50;1.00;;;;;;5113447;28;20781;-55
2021/01/29 09:32:02;;;;;;;10.90;9.00;;;4.50;1.00;;;;;;5125504;27;21090;-55
2021/01/29 09:34:50;;;;;;;13.30;8.93;;;4.50;1.00;;;;;;5119979;27;20412;-55
2021/01/29 09:37:22;;;;;;;10.63;7.50;;;4.50;1.00;;;;;;5116038;27;20419;-56
2021/01/29 09:39:54;;;;;;;9.47;7.07;;;4.50;1.00;;;;;;5125461;27;20474;-55
2021/01/29 09:42:40;;;;;;;11.30;8.43;;;4.50;1.00;;;;;;5131208;27;20971;-57
2021/01/29 09:45:14;;;;;;;8.80;6.90;;;4.50;1.00;;;;;;5103725;27;20435;-56
2021/01/29 09:47:44;;;;;;;9.83;7.10;;;4.50;1.00;;;;;;5124534;27;20478;-55
2021/01/29 09:50:23;;;;;;;10.10;7.60;;;4.40;1.00;;;;;;5127789;27;20503;-55
2021/01/29 09:53:06;;;;;;;9.53;7.13;;;4.40;1.00;;;;;;5101625;27;20822;-55
2021/01/29 09:55:43;;;;;;;8.53;6.43;;;4.40;1.00;;;;;;5127034;27;20526;-55
2021/01/29 09:58:22;;;;;;;10.67;6.50;;;4.40;1.00;;;;;;5112790;27;20463;-56
2021/01/29 10:01:09;;;;;;;10.27;6.70;;;4.40;1.00;;;;;;5120745;27;20462;-56
2021/01/29 10:04:08;;;;;;;8.07;6.47;;;4.40;1.00;;;;;;5116426;27;20422;-55
2021/01/29 10:06:52;;;;;;;10.13;7.43;;;4.30;1.00;;;;;;5119058;27;21006;-55
2021/01/29 10:09:24;;;;;;;8.37;7.23;;;4.30;1.00;;;;;;5119165;27;20962;-58
2021/01/29 10:12:03;;;;;;;8.50;7.17;;;4.30;1.00;;;;;;5125240;27;20434;-57
2021/01/29 10:14:51;;;;;;;8.70;6.97;;;4.30;1.00;;;;;;5125656;27;20505;-57
2021/01/29 10:17:28;;;;;;;10.73;7.33;;;4.30;1.00;;;;;;5119319;27;20435;-55
2021/01/29 10:19:57;;;;;;;9.77;6.90;;;4.30;1.00;;;;;;5112340;28;20439;-56
2021/01/29 10:22:40;;;;;;;9.80;6.57;;;4.30;1.00;;;;;;5121683;27;20471;-56
2021/01/29 10:25:24;;;;;;;11.37;7.03;;;4.30;1.00;;;;;;5120191;28;20788;-55
2021/01/29 10:28:02;;;;;;;9.93;6.90;;;4.30;1.00;;;;;;5128972;28;20924;-56
2021/01/29 10:30:51;;;;;;;11.10;7.73;;;4.30;1.00;;;;;;5125385;27;20986;-56
2021/01/29 10:33:30;;;;;;;7.67;6.23;;;4.20;1.00;;;;;;5115083;28;20826;-57
2021/01/29 10:36:09;;;;;;;10.73;6.87;;;4.30;1.00;;;;;;5112952;28;20443;-56
2021/01/29 10:38:48;;;;;;;10.30;7.77;;;4.30;1.00;;;;;;5121487;27;20850;-56
2021/01/29 10:41:37;;;;;;;10.30;7.30;;;4.20;1.00;;;;;;5122399;28;20851;-56
2021/01/29 10:44:15;;;;;;;9.80;7.03;;;4.10;1.00;;;;;;5122282;28;20435;-55
2021/01/29 10:47:18;;;;;;;8.40;6.77;;;4.10;1.00;;;;;;5120303;27;20434;-57
2021/01/29 10:50:12;;;;;;;7.97;6.13;;;4.20;1.00;;;;;;5115542;28;20488;-55
2021/01/29 10:52:59;;;;;;;9.47;7.27;;;4.40;1.00;;;;;;5114938;28;20435;-56
2021/01/29 10:55:37;;;;;;;8.63;5.87;;;4.30;1.00;;;;;;5121471;28;20442;-56
2021/01/29 10:58:08;;;;;;;8.30;6.20;;;4.30;1.00;;;;;;5123163;28;20438;-56
2021/01/29 11:00:36;;;;;;;9.50;7.40;;;4.30;1.00;;;;;;5114191;28;20423;-57
2021/01/29 11:03:18;;;;;;;8.07;6.57;;;4.40;1.00;;;;;;5122328;27;20431;-56
2021/01/29 11:05:47;;;;;;;7.77;5.53;;;4.40;1.00;;;;;;5129743;27;21063;-57
2021/01/29 11:08:29;;;;;;;6.90;5.77;;;4.40;1.00;;;;;;5120169;27;20568;-56
2021/01/29 11:11:08;;;;;;;11.50;6.87;;;4.60;1.00;;;;;;5133498;27;20440;-57
2021/01/29 11:14:30;;;;;;;8.83;6.10;;;4.60;1.00;;;;;;5133703;27;20465;-56
2021/01/29 11:17:05;;;;;;;7.33;5.53;;;4.70;1.00;;;;;;5092614;27;20450;-57
2021/01/29 11:19:36;;;;;;;6.90;6.20;;;4.80;1.00;;;;;;5119085;27;20435;-56
2021/01/29 11:22:14;;;;;;;6.43;5.37;;;4.80;1.00;;;;;;5118057;27;20470;-55
2021/01/29 11:24:51;;;;;;;6.90;5.73;;;4.80;1.00;;;;;;5128133;27;20931;-56
2021/01/29 11:27:35;;;;;;;7.40;5.33;;;3.70;1.00;;;;;;5133119;27;20454;-55
2021/01/29 11:30:32;;;;;;;7.60;5.57;;;4.90;1.00;;;;;;5115385;27;20464;-57
2021/01/29 11:33:01;;;;;;;6.97;5.47;;;4.90;1.00;;;;;;5115402;28;20463;-55
2021/01/29 11:35:52;;;;;;;7.17;5.13;;;5.00;1.00;;;;;;5129267;27;20457;-56
2021/01/29 11:38:35;;;;;;;7.80;6.07;;;5.00;1.00;;;;;;5121791;27;20439;-56
2021/01/29 11:41:17;;;;;;;6.57;5.67;;;5.00;1.00;;;;;;5118844;27;20450;-55
2021/01/29 11:44:10;;;;;;;7.13;5.70;;;5.00;1.00;;;;;;5121332;27;20438;-57
2021/01/29 11:46:56;;;;;;;7.10;5.40;;;4.90;1.00;;;;;;5121657;27;20750;-57
2021/01/29 11:49:29;;;;;;;6.67;4.77;;;4.80;1.00;;;;;;5127506;27;20436;-57
2021/01/29 11:52:37;;;;;;;8.10;6.10;;;4.80;1.00;;;;;;5133075;27;20439;-59
2021/01/29 11:55:09;;;;;;;9.70;5.30;;;4.60;1.00;;;;;;5124757;27;20485;-56
2021/01/29 11:58:13;;;;;;;8.63;6.70;;;4.70;1.00;;;;;;5124516;27;20480;-57
2021/01/29 12:01:11;;;;;;;6.63;5.80;;;4.70;1.00;;;;;;5108772;28;20454;-56
2021/01/29 12:03:54;;;;;;;6.33;5.60;;;4.70;1.00;;;;;;5120099;27;20428;-56
2021/01/29 12:06:29;;;;;;;8.00;5.83;;;4.60;1.00;;;;;;5126387;27;20422;-55
2021/01/29 12:09:01;;;;;;;7.33;5.87;;;4.70;1.00;;;;;;5119465;27;20427;-56
2021/01/29 12:11:59;;;;;;;11.20;6.13;;;4.70;1.00;;;;;;5121242;27;20428;-54
2021/01/29 12:14:45;;;;;;;5.77;5.10;;;4.70;1.00;;;;;;5123377;27;20447;-58
2021/01/29 12:17:11;;;;;;;10.90;6.00;;;4.70;1.00;;;;;;5130206;27;20442;-57
2021/01/29 12:19:46;;;;;;;7.43;5.57;;;4.70;1.00;;;;;;5123748;27;20942;-57
2021/01/29 12:22:17;;;;;;;16.47;8.43;;;4.70;1.00;;;;;;5125121;27;20461;-55
2021/01/29 12:25:06;;;;;;;8.40;6.87;;;4.80;1.00;;;;;;5121084;27;20477;-57
2021/01/29 12:27:45;;;;;;;8.00;5.80;;;4.90;1.00;;;;;;5117004;27;20552;-56
2021/01/29 12:30:19;;;;;;;8.23;6.30;;;4.80;1.00;;;;;;5112959;27;20757;-55
2021/01/29 12:33:09;;;;;;;7.20;5.37;;;4.80;1.00;;;;;;5124045;27;20462;-57
2021/01/29 12:35:49;;;;;;;7.40;4.60;;;4.80;1.00;;;;;;5118228;27;20600;-56
2021/01/29 12:38:21;;;;;;;7.53;6.00;;;4.80;1.00;;;;;;5115887;27;20478;-56
2021/01/29 12:41:17;;;;;;;7.43;5.63;;;4.80;1.00;;;;;;5123078;27;20463;-56
2021/01/29 12:44:07;;;;;;;7.90;5.73;;;4.90;1.00;;;;;;5121736;27;20450;-55
2021/01/29 12:46:45;;;;;;;7.27;5.67;;;4.80;1.00;;;;;;5127210;27;20433;-57
2021/01/29 12:49:27;;;;;;;6.10;4.90;;;4.80;1.00;;;;;;5132077;27;20484;-55
2021/01/29 12:52:02;;;;;;;6.00;4.80;;;4.90;1.00;;;;;;5120241;27;20944;-57
2021/01/29 12:54:47;;;;;;;5.30;4.53;;;4.90;1.00;;;;;;5123621;27;20445;-55
2021/01/29 12:57:22;;;;;;;7.43;5.60;;;5.00;1.00;;;;;;5127993;27;20417;-57
2021/01/29 12:59:54;;;;;;;5.77;4.53;;;4.90;1.00;;;;;;5123859;27;20442;-56
2021/01/29 13:02:41;;;;;;;6.03;4.90;;;4.90;1.00;;;;;;5116626;27;20512;-57
2021/01/29 13:05:09;;;;;;;6.83;4.60;;;4.90;1.00;;;;;;5125288;27;20434;-57
2021/01/29 13:07:51;;;;;;;6.53;4.80;;;5.00;1.00;;;;;;5114457;27;20730;-56
2021/01/29 13:10:47;;;;;;;5.97;4.60;;;5.00;1.00;;;;;;5119909;27;20427;-57
2021/01/29 13:13:12;;;;;;;5.70;4.10;;;5.00;1.00;;;;;;5128980;27;20479;-56
2021/01/29 13:16:07;;;;;;;4.57;3.93;;;5.00;1.00;;;;;;5125055;27;20423;-56
2021/01/29 13:18:44;;;;;;;6.80;4.30;;;4.90;1.00;;;;;;5119072;27;20228;-58
2021/01/29 13:21:24;;;;;;;6.70;4.93;;;4.80;1.00;;;;;;5123949;27;20747;-55
2021/01/29 13:23:50;;;;;;;4.67;4.07;;;4.70;1.00;;;;;;5114325;27;20438;-57
2021/01/29 13:26:29;;;;;;;4.50;4.10;;;4.80;1.00;;;;;;5113771;28;20424;-57
2021/01/29 13:29:16;;;;;;;6.80;4.20;;;4.90;1.00;;;;;;5114361;27;20467;-56
2021/01/29 13:31:43;;;;;;;5.57;4.43;;;6.80;1.00;;;;;;5111734;27;20983;-58
2021/01/29 13:34:25;;;;;;;6.43;4.10;;;4.80;1.00;;;;;;5127696;27;20440;-57
2021/01/29 13:37:02;;;;;;;4.50;3.63;;;4.80;1.00;;;;;;5120562;27;20946;-58
2021/01/29 13:39:39;;;;;;;6.00;4.17;;;4.90;1.00;;;;;;5127802;27;20776;-56
2021/01/29 13:42:11;;;;;;;5.63;4.10;;;4.90;1.00;;;;;;5122000;27;20812;-55
2021/01/29 13:44:43;;;;;;;4.60;4.20;;;5.00;1.00;;;;;;5120503;27;20431;-56
2021/01/29 13:47:21;;;;;;;5.60;4.20;;;5.00;1.00;;;;;;5112898;27;20466;-55
2021/01/29 13:49:47;;;;;;;5.30;4.80;;;5.10;1.00;;;;;;5121205;27;20420;-56
2021/01/29 13:52:20;;;;;;;6.57;4.50;;;5.00;1.00;;;;;;5130673;27;20438;-56
2021/01/29 13:54:46;;;;;;;5.60;3.67;;;5.00;1.00;;;;;;5132168;27;20203;-56
2021/01/29 13:57:37;;;;;;;5.57;3.77;;;5.00;1.00;;;;;;5121910;27;20428;-55
2021/01/29 14:00:26;;;;;;;5.10;4.50;;;5.10;1.00;;;;;;5127681;27;20650;-55
2021/01/29 14:03:13;;;;;;;4.97;4.47;;;5.10;1.00;;;;;;5127052;27;20818;-58